Time;durP1;ratioP1;P1;durP2;ratioP2;P2;SDS_P1;SDS_P2;PMS_P1;PMS_P2;Temp;Humidity;BMP_temperature;BMP_pressure;BME280_temperature;BME280_humidity;BME280_pressure;Samples;Min_cycle;Max_cycle;Signal;HPM_P1;HPM_P2
2024/04/25 00:01:15;;;;;;;29.00;18.10;;;;;;;5.20;70.88;99207.76;126308;1294;128474;-59
2024/04/25 00:04:53;;;;;;;;;;;;;;;;;;;;;
2024/04/25 00:08:39;;;;;;;;;;;;;;;;;;;;;
2024/04/25 00:12:12;;;;;;;;;;;;;;;5.24;71.15;99208.23;126945;1301;114920;-59
2024/04/25 00:16:14;;;;;;;28.30;18.60;;;;;;;5.26;71.24;99205.54;127394;1305;114819;-61
2024/04/25 00:19:52;;;;;;;26.30;16.10;;;;;;;5.26;71.19;99204.98;126755;1306;129624;-60
2024/04/25 00:23:56;;;;;;;28.20;18.60;;;;;;;5.24;71.07;99213.75;127266;1306;114858;-60
2024/04/25 00:27:41;;;;;;;;;;;;;;;;;;;;;
2024/04/25 00:31:20;;;;;;;29.70;17.80;;;;;;;5.07;70.91;99216.63;126857;1291;114762;-60
2024/04/25 00:35:17;;;;;;;;;;;;;;;;;;;;;
2024/04/25 00:38:57;;;;;;;;;;;;;;;;;;;;;
2024/04/25 00:42:39;;;;;;;;;;;;;;;;;;;;;
2024/04/25 00:46:34;;;;;;;;;;;;;;;;;;;;;
2024/04/25 00:50:31;;;;;;;;;;;;;;;;;;;;;
2024/04/25 00:54:42;;;;;;;28.30;17.90;;;;;;;4.57;71.36;99207.73;125961;1297;635994;-60
2024/04/25 00:58:15;;;;;;;;;;;;;;;;;;;;;
2024/04/25 01:02:11;;;;;;;;;;;;;;;;;;;;;
2024/04/25 01:05:59;;;;;;;;;;;;;;;;;;;;;
2024/04/25 01:10:02;;;;;;;;;;;;;;;;;;;;;
2024/04/25 01:13:45;;;;;;;;;;;;;;;;;;;;;
2024/04/25 01:17:31;;;;;;;;;;;;;;;;;;;;;
2024/04/25 01:21:17;;;;;;;30.60;17.90;;;;;;;4.68;72.58;99194.95;125761;1317;128491;-59
2024/04/25 01:25:21;;;;;;;31.10;18.60;;;;;;;4.70;72.67;99195.93;126133;1317;114906;-60
2024/04/25 01:33:27;;;;;;;29.00;18.50;;;;;;;4.76;72.89;99199.91;125951;1305;636327;-61
2024/04/25 01:37:13;;;;;;;30.10;17.70;;;;;;;4.77;73.18;99195.64;128342;1294;128934;-62
2024/04/25 01:44:45;;;;;;;29.50;19.80;;;;;;;4.79;72.97;99187.95;128248;1287;115330;-61
2024/04/25 01:48:34;;;;;;;30.70;18.20;;;;;;;4.77;72.79;99186.60;125339;1300;114878;-61
2024/04/25 01:52:17;;;;;;;29.50;17.70;;;;;;;4.75;72.88;99188.86;127560;1300;115276;-61
2024/04/25 01:55:55;;;;;;;28.90;17.30;;;;;;;4.69;72.75;99188.39;127766;1300;114964;-61
2024/04/25 01:59:42;;;;;;;31.80;18.70;;;;;;;4.63;72.87;99188.30;127736;1283;127872;-59
2024/04/25 02:03:46;;;;;;;28.40;17.90;;;;;;;4.57;72.79;99182.34;127765;1280;114885;-60
2024/04/25 02:07:40;;;;;;;;;;;;;;;;;;;;;
2024/04/25 02:11:26;;;;;;;;;;;;;;;;;;;;;
2024/04/25 02:15:20;;;;;;;;;;;;;;;;;;;;;
2024/04/25 02:19:06;;;;;;;28.50;16.40;;;;;;;4.22;72.52;99180.11;126546;1289;128053;-59
2024/04/25 02:26:56;;;;;;;28.80;17.20;;;;;;;3.98;73.18;99185.69;127554;1277;114936;-59
2024/04/25 02:30:37;;;;;;;;;;;;;;;;;;;;;
2024/04/25 02:34:39;;;;;;;;;;;;;;;;;;;;;
2024/04/25 02:38:20;;;;;;;;;;;;;;;;;;;;;
2024/04/25 02:41:57;;;;;;;30.10;17.50;;;;;;;3.81;73.78;99189.89;126885;1298;114877;-60
2024/04/25 02:46:01;;;;;;;29.60;16.90;;;;;;;3.80;73.78;99193.11;127255;1286;114843;-60
2024/04/25 02:49:53;;;;;;;29.30;17.40;;;;;;;3.78;73.85;99192.64;126141;1304;114971;-60
2024/04/25 02:53:24;;;;;;;;;;;;;;;;;;;;;
2024/04/25 02:57:12;;;;;;;32.30;19.00;;;;;;;3.75;73.92;99189.22;125779;1316;129731;-62
2024/04/25 03:00:47;;;;;;;;;;;;;;;;;;;;;
2024/04/25 03:04:49;;;;;;;28.80;17.20;;;;;;;3.70;73.63;99186.46;125909;1316;114938;-61
2024/04/25 03:08:32;;;;;;;31.40;19.70;;;;;;;3.62;73.59;99184.77;125314;1306;114961;-60
2024/04/25 03:12:26;;;;;;;;;;;;;;;;;;;;;
2024/04/25 03:16:31;;;;;;;;;;;;;;;;;;;;;
2024/04/25 03:20:12;;;;;;;;;;;;;;;;;;;;;
2024/04/25 03:24:08;;;;;;;31.80;17.60;;;;;;;3.20;73.45;99206.86;128734;1289;114749;-61
2024/04/25 03:27:54;;;;;;;;;;;;;;;;;;;;;
2024/04/25 03:31:50;;;;;;;33.00;18.30;;;;;;;2.95;73.53;99217.29;124050;1298;114967;-60
2024/04/25 03:35:50;;;;;;;29.40;17.90;;;;;;;2.87;73.63;99218.98;127363;1303;115186;-62
2024/04/25 03:39:19;;;;;;;;;;;;;;;;;;;;;
2024/04/25 03:43:10;;;;;;;34.80;20.30;;;;;;;2.72;73.64;99230.06;126723;1299;128750;-60
2024/04/25 03:47:12;;;;;;;33.20;19.20;;;;;;;2.68;74.33;99224.56;126767;1292;114853;-60
2024/04/25 03:51:12;;;;;;;34.00;18.80;;;;;;;2.65;74.63;99231.21;126320;1312;114894;-60
2024/04/25 03:55:13;;;;;;;;;;;;;;;;;;;;;
2024/04/25 03:58:52;;;;;;;;;;;;;;;;;;;;;
2024/04/25 04:02:25;;;;;;;;;;;;;;;;;;;;;
2024/04/25 04:06:04;;;;;;;;;;;;;;;;;;;;;
2024/04/25 04:09:37;;;;;;;30.70;18.20;;;;;;;3.01;76.20;99223.77;124605;1317;116539;-60
2024/04/25 04:12:56;;;;;;;;;;;;;;;3.16;76.70;99229.56;125255;1306;115003;-60
2024/04/25 04:16:44;;;;;;;33.40;18.20;;;;;;;3.31;76.69;99229.56;125632;1301;114980;-60
2024/04/25 04:20:33;;;;;;;;;;;;;;;;;;;;;
2024/04/25 04:24:19;;;;;;;32.40;18.60;;;;;;;3.75;77.09;99228.08;125579;1319;114871;-60
2024/04/25 04:27:53;;;;;;;30.20;18.70;;;;;;;3.98;77.13;99235.50;125079;1318;114851;-61
2024/04/25 04:31:55;;;;;;;31.00;20.10;;;;;;;4.18;77.13;99240.01;125682;1308;114937;-60
2024/04/25 04:35:47;;;;;;;27.20;16.00;;;;;;;4.41;76.95;99239.09;125741;1312;114981;-60
2024/04/25 04:39:25;;;;;;;27.00;17.40;;;;;;;4.62;76.85;99234.30;125610;1299;128892;-60
2024/04/25 04:42:53;;;;;;;31.60;19.30;;;;;;;4.85;76.80;99240.92;125286;1301;115142;-59
2024/04/25 04:46:20;;;;;;;31.00;18.50;;;;;;;5.09;76.50;99236.69;125464;1301;115301;-63
2024/04/25 04:50:10;;;;;;;32.20;20.70;;;;;;;5.34;76.43;99237.02;125623;1293;114843;-60
2024/04/25 04:54:03;;;;;;;;;;;;;;;;;;;;;
2024/04/25 04:57:46;;;;;;;25.20;15.40;;;;;;;6.84;76.21;99233.21;124694;1328;129814;-60
2024/04/25 05:01:34;;;;;;;22.50;13.60;;;;;;;7.60;75.40;99229.60;124915;1323;114971;-61
2024/04/25 05:05:24;;;;;;;25.70;15.60;;;;;;;8.41;74.84;99230.80;124466;1328;115004;-61
2024/04/25 05:08:57;;;;;;;28.10;17.20;;;;;;;8.91;73.01;99230.38;124642;1310;115008;-61
2024/04/25 05:12:32;;;;;;;26.90;18.80;;;;;;;8.94;72.14;99237.50;125350;1317;115001;-60
2024/04/25 05:15:53;;;;;;;30.00;18.30;;;;;;;8.81;70.95;99240.23;125902;1293;128660;-60
2024/04/25 05:19:45;;;;;;;;;;;;;;;;;;;;;
2024/04/25 05:23:32;;;;;;;;;;;;;;;;;;;;;
2024/04/25 05:27:23;;;;;;;25.80;17.80;;;;;;;8.54;70.88;99253.73;125459;1317;114921;-60
2024/04/25 05:31:24;;;;;;;24.80;16.00;;;;;;;9.02;71.05;99249.15;125661;1308;114946;-61
2024/04/25 05:35:11;;;;;;;24.30;17.10;;;;;;;9.57;70.61;99251.64;126036;1293;129786;-62
2024/04/25 05:38:57;;;;;;;;;;;;;;;;;;;;;
2024/04/25 05:42:36;;;;;;;;;;;;;;;;;;;;;
2024/04/25 05:46:31;;;;;;;;;;;;;;;;;;;;;
2024/04/25 05:50:01;;;;;;;26.00;17.90;;;;;;;10.15;67.81;99256.92;124917;1323;114965;-61
2024/04/25 05:54:04;;;;;;;25.00;17.00;;;;;;;10.19;67.82;99255.77;125104;1319;129810;-60
2024/04/25 05:58:00;;;;;;;;;;;;;;;;;;;;;
2024/04/25 06:01:50;;;;;;;22.50;15.50;;;;;;;10.81;67.27;99260.19;123948;1330;115013;-61
2024/04/25 06:10:13;;;;;;;17.80;14.70;;;;;;;11.00;65.96;99255.45;127189;1289;636723;-60
2024/04/25 06:14:15;;;;;;;21.00;11.70;;;;;;;11.28;66.02;99256.94;128126;1281;129127;-61
2024/04/25 06:18:17;;;;;;;;;;;;;;;;;;;;;
2024/04/25 06:21:38;;;;;;;;;;;;;;;;;;;;;
2024/04/25 06:25:13;;;;;;;23.40;14.60;;;;;;;11.68;63.22;99256.64;126993;1290;115044;-59
2024/04/25 06:28:41;;;;;;;;;;;;;;;;;;;;;
2024/04/25 06:32:30;;;;;;;18.90;13.20;;;;;;;11.62;62.65;99259.59;126419;1308;114948;-60
2024/04/25 06:36:34;;;;;;;20.80;15.20;;;;;;;11.60;62.68;99264.05;126795;1290;129734;-61
2024/04/25 06:40:26;;;;;;;;;;;;;;;;;;;;;
2024/04/25 06:44:23;;;;;;;17.90;13.50;;;;;;;11.71;62.06;99263.96;126526;1294;114872;-60
2024/04/25 06:48:18;;;;;;;15.10;11.50;;;;;;;11.78;61.17;99264.40;125716;1299;114861;-61
2024/04/25 06:52:04;;;;;;;;;;;;;;;;;;;;;
2024/04/25 06:55:59;;;;;;;12.30;8.80;;;;;;;11.57;60.58;99274.64;125748;1316;128503;-60
2024/04/25 06:59:56;;;;;;;9.30;6.50;;;;;;;11.50;60.91;99262.76;125682;1289;114963;-62
2024/04/25 07:03:20;;;;;;;9.20;6.50;;;;;;;12.00;61.07;99261.41;126160;1313;114982;-60
2024/04/25 07:07:01;;;;;;;9.20;7.70;;;;;;;12.74;60.93;99262.30;126226;1290;114798;-61
2024/04/25 07:10:50;;;;;;;;;;;;;;;;;;;;;
2024/04/25 07:14:53;;;;;;;7.80;6.00;;;;;;;14.17;58.96;99257.09;126107;1314;128979;-61
2024/04/25 07:18:45;;;;;;;7.70;5.80;;;;;;;14.82;57.59;99258.98;125838;1302;115430;-61
2024/04/25 07:22:24;;;;;;;;;;;;;;;;;;;;;
2024/04/25 07:25:49;;;;;;;;;;;;;;;15.83;55.36;99256.88;125660;1306;115080;-61
2024/04/25 07:29:29;;;;;;;5.60;4.60;;;;;;;16.29;54.11;99254.05;125955;1316;114882;-62
2024/04/25 07:33:12;;;;;;;;;;;;;;;;;;;;;
2024/04/25 07:36:59;;;;;;;4.80;4.30;;;;;;;17.51;51.93;99249.85;126815;1293;115007;-60
2024/04/25 07:41:02;;;;;;;6.00;5.40;;;;;;;18.06;50.98;99241.91;126615;1295;114842;-62
2024/04/25 07:45:01;;;;;;;;;;;;;;;;;;;;;
2024/04/25 07:49:15;;;;;;;5.10;4.00;;;;;;;19.34;48.66;99239.23;125957;1315;114914;-62
2024/04/25 07:53:09;;;;;;;4.50;4.00;;;;;;;19.80;46.88;99238.70;126120;1306;129744;-61
2024/04/25 07:57:10;;;;;;;1.20;0.80;;;;;;;20.10;46.50;99243.35;125618;1301;114889;-62
2024/04/25 08:00:37;;;;;;;6.80;4.90;;;;;;;20.40;44.86;99241.92;125704;1315;114981;-62
2024/04/25 08:04:13;;;;;;;;;;;;;;;;;;;;;
2024/04/25 08:08:01;;;;;;;5.50;4.90;;;;;;;19.65;43.32;99245.52;125524;1318;114978;-60
2024/04/25 08:11:48;;;;;;;;;;;;;;;;;;;;;
2024/04/25 08:15:45;;;;;;;6.60;5.30;;;;;;;19.89;43.49;99243.79;125249;1307;115047;-62
2024/04/25 08:19:36;;;;;;;5.50;4.60;;;;;;;20.40;43.34;99242.63;124834;1315;115294;-61
2024/04/25 08:23:30;;;;;;;6.40;4.50;;;;;;;21.00;41.50;99238.61;125478;1317;115018;-61
2024/04/25 08:31:25;;;;;;;5.50;4.30;;;;;;;21.26;40.79;99238.44;125193;1306;128990;-61
2024/04/25 08:34:55;;;;;;;4.90;3.40;;;;;;;21.74;40.17;99235.95;124543;1330;114978;-62
2024/04/25 08:38:27;;;;;;;;;;;;;;;;;;;;;
2024/04/25 08:42:21;;;;;;;3.60;3.00;;;;;;;22.74;38.56;99239.64;125498;1296;114984;-62
2024/04/25 08:46:17;;;;;;;;;;;;;;;;;;;;;
2024/04/25 08:50:12;;;;;;;;;;;;;;;;;;;;;
2024/04/25 08:54:34;;;;;;;;;;;;;;;;;;;;;
2024/04/25 08:57:52;;;;;;;3.70;2.60;;;;;;;22.14;37.03;99241.01;128762;1272;127293;-63
2024/04/25 09:01:28;;;;;;;3.80;3.00;;;;;;;21.82;36.52;99238.76;128620;1267;114852;-62
2024/04/25 09:05:31;;;;;;;3.10;2.10;;;;;;;21.56;36.10;99235.84;128466;1277;115166;-62
2024/04/25 09:09:10;;;;;;;2.90;1.90;;;;;;;21.25;34.64;99238.20;123717;1302;114886;-60
2024/04/25 09:13:03;;;;;;;3.30;2.60;;;;;;;21.01;34.21;99233.34;127748;1283;114958;-62
2024/04/25 09:16:59;;;;;;;3.50;1.80;;;;;;;20.68;34.72;99231.30;127127;1307;114958;-62
2024/04/25 09:21:04;;;;;;;2.50;1.70;;;;;;;20.31;34.71;99233.69;125854;1295;129690;-62
2024/04/25 09:24:51;;;;;;;3.90;1.70;;;;;;;19.86;34.46;99234.13;125330;1303;115001;-60
2024/04/25 09:28:20;;;;;;;;;;;;;;;;;;;;;
2024/04/25 09:32:15;;;;;;;5.60;3.20;;;;;;;19.52;34.25;99235.61;124301;1320;115012;-62
2024/04/25 09:36:00;;;;;;;;;;;;;;;;;;;;;
2024/04/25 09:43:51;;;;;;;3.70;2.20;;;;;;;19.25;33.92;99234.40;126422;1306;635989;-62
2024/04/25 09:47:56;;;;;;;3.30;1.50;;;;;;;19.05;34.28;99237.52;128948;1273;128600;-61
2024/04/25 09:51:55;;;;;;;;;;;;;;;;;;;;;
2024/04/25 09:55:53;;;;;;;2.40;1.40;;;;;;;18.85;34.84;99238.08;126621;1292;114863;-62
2024/04/25 10:00:23;;;;;;;2.60;1.80;;;;;;;18.76;34.58;99237.14;122928;1286;114946;-60
2024/04/25 10:04:17;;;;;;;2.50;1.80;;;;;;;18.55;34.67;99235.11;126803;1308;114755;-63
2024/04/25 10:08:10;;;;;;;2.70;1.80;;;;;;;18.36;33.96;99233.53;126566;1300;114800;-62
2024/04/25 10:11:57;;;;;;;2.10;1.60;;;;;;;18.02;34.60;99244.48;126485;1306;129675;-62
2024/04/25 10:16:07;;;;;;;;;;;;;;;;;;;;;
2024/04/25 10:19:59;;;;;;;1.40;1.10;;;;;;;18.45;35.06;99237.31;125411;1323;114958;-61
2024/04/25 10:23:48;;;;;;;1.20;0.70;;;;;;;18.61;34.87;99233.92;124876;1328;114985;-61
2024/04/25 10:27:36;;;;;;;2.90;1.60;;;;;;;18.47;33.91;99235.56;124829;1319;115033;-62
2024/04/25 10:31:09;;;;;;;;;;;;;;;;;;;;;
2024/04/25 10:35:00;;;;;;;;;;;;;;;;;;;;;
2024/04/25 10:42:52;;;;;;;;;;;;;;;;;;;;;
2024/04/25 10:46:38;;;;;;;;;;;;;;;;;;;;;
2024/04/25 10:50:22;;;;;;;;;;;;;;;;;;;;;
2024/04/25 10:53:47;;;;;;;3.20;1.00;;;;;;;17.84;34.70;99228.52;127156;1305;114959;-62
2024/04/25 10:57:30;;;;;;;2.30;1.10;;;;;;;17.81;34.92;99226.62;128319;1277;114935;-62
2024/04/25 11:01:31;;;;;;;2.50;1.00;;;;;;;17.88;35.08;99227.38;128923;1263;114928;-62
2024/04/25 11:05:25;;;;;;;;;;;;;;;;;;;;;
2024/04/25 11:09:21;;;;;;;;;;;;;;;;;;;;;
2024/04/25 11:13:03;;;;;;;;;;;;;;;;;;;;;
2024/04/25 11:16:57;;;;;;;1.90;0.90;;;;;;;17.99;34.85;99236.45;128252;1279;114789;-61
2024/04/25 11:20:32;;;;;;;5.40;4.30;;;;;;;17.87;34.82;99239.90;127182;1305;115258;-61
2024/04/25 11:24:24;;;;;;;2.30;0.70;;;;;;;17.76;34.74;99236.27;127047;1305;116162;-61
2024/04/25 11:28:21;;;;;;;1.40;0.80;;;;;;;17.60;34.48;99240.72;127163;1286;128827;-62
2024/04/25 11:31:34;;;;;;;1.40;0.70;;;;;;;17.39;34.69;99247.02;126775;1305;114854;-62
2024/04/25 11:35:16;;;;;;;2.60;0.80;;;;;;;17.25;34.48;99246.14;126790;1300;114958;-62
2024/04/25 11:39:20;;;;;;;1.30;0.80;;;;;;;17.11;34.83;99248.25;126323;1311;115042;-61
2024/04/25 11:43:11;;;;;;;;;;;;;;;;;;;;;
2024/04/25 11:47:02;;;;;;;1.80;0.80;;;;;;;17.09;34.93;99243.66;124982;1324;129656;-62
2024/04/25 11:51:01;;;;;;;2.10;1.20;;;;;;;16.77;34.39;99244.51;124711;1325;114962;-61
2024/04/25 11:54:48;;;;;;;1.30;0.90;;;;;;;16.42;35.00;99246.79;125003;1323;114938;-61
2024/04/25 11:58:02;;;;;;;1.10;0.70;;;;;;;16.27;34.73;99252.23;125896;1293;115280;-61
2024/04/25 12:01:47;;;;;;;1.70;0.90;;;;;;;16.09;34.84;99247.73;125977;1314;115029;-62
2024/04/25 12:05:33;;;;;;;;;;;;;;;;;;;;;
2024/04/25 12:13:32;;;;;;;;;;;;;;;;;;;;;
2024/04/25 12:17:37;;;;;;;1.80;1.30;;;;;;;15.57;35.02;99248.71;128678;1270;128992;-61
2024/04/25 12:21:06;;;;;;;;;;;;;;;;;;;;;
2024/04/25 12:24:14;;;;;;;3.20;1.20;;;;;;;15.55;34.40;99236.93;128278;1290;115362;-60
2024/04/25 12:28:09;;;;;;;1.30;0.90;;;;;;;15.51;33.89;99228.27;124446;1277;5749218;-61
2024/04/25 12:31:25;;;;;;;1.10;0.70;;;;;;;15.44;34.39;99232.88;127807;1298;114985;-61
2024/04/25 12:34:54;;;;;;;;;;;;;;;;;;;;;
2024/04/25 12:38:35;;;;;;;1.90;1.20;;;;;;;15.75;34.64;99225.85;127741;1282;128568;-62
2024/04/25 12:42:27;;;;;;;3.70;1.70;;;;;;;15.85;34.86;99218.73;127229;1304;114804;-63
2024/04/25 12:45:58;;;;;;;2.10;1.40;;;;;;;15.76;34.79;99220.54;128456;1279;114981;-61
2024/04/25 12:50:11;;;;;;;2.80;1.20;;;;;;;15.69;34.62;99220.11;128627;1276;114899;-61
2024/04/25 12:54:08;;;;;;;2.60;1.00;;;;;;;15.60;34.58;99220.67;127987;1284;114916;-62
2024/04/25 12:58:00;;;;;;;;;;;;;;;;;;;;;
2024/04/25 13:01:59;;;;;;;5.20;1.00;;;;;;;15.73;35.09;99208.23;126484;1309;114966;-61
2024/04/25 13:05:43;;;;;;;1.50;1.10;;;;;;;15.84;35.12;99209.61;126110;1315;114910;-61
2024/04/25 13:09:03;;;;;;;2.10;1.10;;;;;;;15.94;35.08;99207.44;126370;1310;114880;-61
2024/04/25 13:13:04;;;;;;;3.20;1.20;;;;;;;15.97;35.11;99216.75;126455;1289;114930;-61
2024/04/25 13:16:39;;;;;;;;;;;;;;;;;;;;;
2024/04/25 13:20:22;;;;;;;;;;;;;;;;;;;;;
2024/04/25 13:24:03;;;;;;;3.50;2.00;;;;;;;15.23;36.72;99244.71;126119;1297;115200;-61
2024/04/25 13:27:49;;;;;;;8.80;2.20;;;;;;;15.11;37.05;99250.30;126346;1294;114903;-62
2024/04/25 13:31:26;;;;;;;;;;;;;;;;;;;;;
2024/04/25 13:35:12;;;;;;;4.20;2.20;;;;;;;15.05;37.80;99248.05;126682;1302;129811;-63
2024/04/25 13:39:02;;;;;;;3.30;2.00;;;;;;;15.10;37.68;99249.27;127014;1286;114845;-64
2024/04/25 13:42:36;;;;;;;;;;;;;;;;;;;;;
2024/04/25 13:46:16;;;;;;;2.80;1.20;;;;;;;14.92;37.68;99241.61;127396;1285;114962;-64
2024/04/25 13:49:44;;;;;;;3.40;1.90;;;;;;;14.83;37.98;99249.67;127086;1289;115035;-62
2024/04/25 13:53:14;;;;;;;3.10;1.10;;;;;;;14.76;38.12;99267.23;126796;1298;128642;-64
2024/04/25 13:56:34;;;;;;;;;;;;;;;;;;;;;
2024/04/25 14:00:14;;;;;;;1.70;1.20;;;;;;;14.61;38.62;99282.60;127491;1285;114798;-63
2024/04/25 14:04:17;;;;;;;3.50;1.60;;;;;;;14.54;38.92;99284.98;126296;1296;114950;-63
2024/04/25 14:08:16;;;;;;;1.60;1.20;;;;;;;14.48;39.48;99297.38;126739;1303;114873;-63
2024/04/25 14:11:32;;;;;;;3.30;0.80;;;;;;;14.73;39.47;99293.17;126646;1299;130126;-63
2024/04/25 14:15:16;;;;;;;;;;;;;;;;;;;;;
2024/04/25 14:18:45;;;;;;;2.30;1.60;;;;;;;15.18;39.85;99289.75;126732;1289;114882;-63
2024/04/25 14:22:31;;;;;;;2.60;1.40;;;;;;;15.12;39.98;99295.84;126421;1310;114910;-64
2024/04/25 14:29:48;;;;;;;4.10;1.30;;;;;;;14.81;40.48;99302.42;126358;1297;127729;-64
2024/04/25 14:33:04;;;;;;;2.10;1.80;;;;;;;14.69;40.69;99311.08;126964;1291;114879;-63
2024/04/25 14:36:51;;;;;;;2.70;1.10;;;;;;;14.58;41.08;99304.56;126872;1291;115181;-63
2024/04/25 14:40:36;;;;;;;3.70;2.20;;;;;;;14.55;41.01;99309.55;126253;1310;114881;-62
2024/04/25 14:44:11;;;;;;;2.90;1.30;;;;;;;14.55;41.24;99309.19;125982;1314;114914;-61
2024/04/25 14:48:02;;;;;;;2.50;1.60;;;;;;;14.55;41.43;99307.70;126145;1285;128771;-62
2024/04/25 14:51:50;;;;;;;3.40;1.10;;;;;;;14.49;41.47;99312.70;126340;1293;114983;-62
2024/04/25 14:55:37;;;;;;;4.00;2.10;;;;;;;14.38;41.56;99315.02;126143;1293;115014;-63
2024/04/25 14:59:30;;;;;;;2.90;1.50;;;;;;;14.16;41.61;99311.97;125689;1314;115013;-62
2024/04/25 15:03:07;;;;;;;2.60;1.50;;;;;;;13.83;41.82;99307.17;126286;1295;115041;-62
2024/04/25 15:06:31;;;;;;;2.60;1.40;;;;;;;13.54;42.04;99302.83;126062;1311;128017;-61
2024/04/25 15:10:00;;;;;;;2.80;1.80;;;;;;;13.28;42.48;99297.77;126046;1304;114980;-62
2024/04/25 15:13:46;;;;;;;;;;;;;;;;;;;;;
2024/04/25 15:17:41;;;;;;;;;;;;;;;;;;;;;
2024/04/25 15:21:28;;;;;;;4.40;1.60;;;;;;;12.71;42.36;99283.84;126591;1304;114946;-63
2024/04/25 15:25:27;;;;;;;2.30;1.00;;;;;;;12.62;42.49;99279.13;125985;1310;129348;-63
2024/04/25 15:29:25;;;;;;;;;;;;;;;;;;;;;
2024/04/25 15:37:29;;;;;;;2.70;1.10;;;;;;;12.15;40.72;99282.67;126170;1297;636039;-62
2024/04/25 15:41:05;;;;;;;2.30;0.80;;;;;;;12.03;40.79;99286.42;128742;1269;128836;-62
2024/04/25 15:44:59;;;;;;;;;;;;;;;;;;;;;
2024/04/25 15:48:46;;;;;;;;;;;;;;;;;;;;;
2024/04/25 15:52:43;;;;;;;;;;;;;;;;;;;;;
2024/04/25 15:56:12;;;;;;;3.20;1.20;;;;;;;12.02;41.93;99296.68;128621;1277;114861;-64
2024/04/25 15:59:58;;;;;;;1.60;1.00;;;;;;;12.03;41.98;99304.53;128560;1266;115227;-62
2024/04/25 16:04:01;;;;;;;3.20;1.20;;;;;;;11.99;42.34;99315.87;133420;1272;128071;-62
2024/04/25 16:07:36;;;;;;;5.90;1.10;;;;;;;11.92;42.55;99348.97;133282;1270;112591;-60
2024/04/25 16:11:20;;;;;;;5.30;1.10;;;;;;;11.74;44.12;99367.52;133280;1270;112701;-60
2024/04/25 16:14:58;;;;;;;;;;;;;;;;;;;;;
2024/04/25 16:18:36;;;;;;;;;;;;;;;;;;;;;
2024/04/25 16:22:42;;;;;;;3.40;1.80;;;;;;;10.94;48.80;99429.91;128355;1272;128791;-62
2024/04/25 16:26:13;;;;;;;2.50;1.60;;;;;;;10.66;49.35;99391.34;127934;1297;114838;-62
2024/04/25 16:29:58;;;;;;;3.40;1.10;;;;;;;10.64;51.76;99329.64;128519;1273;114898;-61
2024/04/25 16:33:35;;;;;;;2.80;1.90;;;;;;;10.57;52.74;99334.25;128453;1277;114845;-61
2024/04/25 16:37:19;;;;;;;1.30;0.80;;;;;;;10.57;53.15;99337.46;127712;1280;115313;-60
2024/04/25 16:41:05;;;;;;;4.50;2.10;;;;;;;10.45;52.93;99342.65;127673;1300;128383;-61
2024/04/25 16:44:46;;;;;;;;;;;;;;;;;;;;;
2024/04/25 16:48:43;;;;;;;3.30;2.00;;;;;;;10.17;53.53;99343.48;127780;1300;115028;-62
2024/04/25 16:52:26;;;;;;;;;;;;;;;;;;;;;
2024/04/25 16:55:58;;;;;;;1.40;0.90;;;;;;;9.73;54.23;99343.23;127135;1282;114882;-62
2024/04/25 16:59:50;;;;;;;;;;;;;;;;;;;;;
2024/04/25 17:03:43;;;;;;;2.00;1.10;;;;;;;9.34;55.30;99346.11;127793;1283;115092;-61
2024/04/25 17:07:29;;;;;;;2.00;1.10;;;;;;;9.16;56.29;99351.83;128019;1297;114980;-61
2024/04/25 17:11:00;;;;;;;2.90;1.30;;;;;;;8.97;56.56;99351.13;128238;1268;114910;-61
2024/04/25 17:14:48;;;;;;;2.20;1.60;;;;;;;8.76;56.83;99354.60;128741;1288;114917;-63
2024/04/25 17:18:27;;;;;;;;;;;;;;;;;;;;;
2024/04/25 17:22:12;;;;;;;;;;;;;;;;;;;;;
2024/04/25 17:26:04;;;;;;;;;;;;;;;;;;;;;
2024/04/25 17:29:55;;;;;;;2.60;2.00;;;;;;;8.09;59.04;99375.77;127246;1285;114920;-61
2024/04/25 17:33:44;;;;;;;2.60;2.10;;;;;;;7.94;59.40;99381.36;126594;1286;116594;-61
2024/04/25 17:36:57;;;;;;;;;;;;;;;;;;;;;
2024/04/25 17:40:33;;;;;;;3.30;2.30;;;;;;;7.67;60.43;99388.95;126455;1292;114957;-60
2024/04/25 17:44:04;;;;;;;2.80;2.00;;;;;;;7.55;60.69;99392.46;126337;1311;114969;-61
2024/04/25 17:47:30;;;;;;;2.40;1.50;;;;;;;7.40;61.00;99397.48;126314;1302;114962;-60
2024/04/25 17:50:59;;;;;;;1.50;1.30;;;;;;;7.26;61.43;99407.44;126386;1310;114983;-62
2024/04/25 17:54:35;;;;;;;5.30;1.50;;;;;;;7.12;61.67;99413.46;126328;1309;129602;-61
2024/04/25 17:57:57;;;;;;;2.20;1.30;;;;;;;6.97;62.01;99418.05;126444;1301;115361;-61
2024/04/25 18:01:34;;;;;;;2.30;1.40;;;;;;;6.84;62.39;99423.13;127636;1295;115006;-62
2024/04/25 18:05:00;;;;;;;;;;;;;;;;;;;;;
2024/04/25 18:08:29;;;;;;;;;;;;;;;;;;;;;
2024/04/25 18:11:38;;;;;;;3.10;1.70;;;;;;;6.48;63.51;99427.30;128636;1288;128784;-61
2024/04/25 18:15:32;;;;;;;3.30;2.10;;;;;;;6.40;63.85;99428.04;128912;1261;114901;-61
2024/04/25 18:19:09;;;;;;;3.80;2.80;;;;;;;6.30;64.18;99433.30;128746;1290;114839;-61
2024/04/25 18:23:06;;;;;;;3.00;2.30;;;;;;;6.20;64.55;99436.23;128636;1292;114954;-61
2024/04/25 18:27:10;;;;;;;4.70;3.20;;;;;;;6.08;64.88;99437.65;128146;1297;115150;-62
2024/04/25 18:30:56;;;;;;;3.90;2.40;;;;;;;5.94;65.22;99437.15;127594;1277;129736;-61
2024/04/25 18:34:43;;;;;;;4.30;3.30;;;;;;;5.81;65.41;99442.70;127548;1277;114970;-62
2024/04/25 18:38:32;;;;;;;;;;;;;;;;;;;;;
2024/04/25 18:41:56;;;;;;;5.70;3.70;;;;;;;5.61;65.97;99454.02;127465;1292;114942;-60
2024/04/25 18:45:58;;;;;;;5.60;3.40;;;;;;;5.53;66.23;99460.02;127743;1283;114961;-61
2024/04/25 18:49:44;;;;;;;;;;;;;;;;;;;;;
2024/04/25 18:53:18;;;;;;;5.10;3.70;;;;;;;5.37;67.24;99465.80;126476;1293;114804;-61
2024/04/25 18:57:00;;;;;;;6.60;4.10;;;;;;;5.29;67.55;99462.43;127171;1301;114757;-62
2024/04/25 19:00:21;;;;;;;5.50;4.20;;;;;;;5.21;67.61;99468.77;127476;1290;114956;-60
2024/04/25 19:04:36;;;;;;;;;;;;;;;;;;;;;
2024/04/25 19:08:20;;;;;;;;;;;;;;;;;;;;;
2024/04/25 19:12:40;;;;;;;9.50;4.90;;;;;;;4.94;68.60;99493.04;127297;1283;114901;-61
2024/04/25 19:16:39;;;;;;;6.70;4.10;;;;;;;4.88;68.82;99489.38;126028;1295;115673;-61
2024/04/25 19:20:27;;;;;;;8.10;5.10;;;;;;;4.84;69.00;99491.84;124695;1307;115188;-61
2024/04/25 19:24:18;;;;;;;7.50;5.10;;;;;;;4.81;69.20;99496.02;124118;1314;114948;-61
2024/04/25 19:28:38;;;;;;;9.50;5.70;;;;;;;4.82;69.53;99495.44;126119;1298;635992;-60
2024/04/25 19:32:41;;;;;;;10.00;6.20;;;;;;;4.80;69.82;99489.53;127383;1281;128962;-61
2024/04/25 19:36:31;;;;;;;12.90;6.60;;;;;;;4.77;69.94;99487.69;125494;1301;114977;-60
2024/04/25 19:39:39;;;;;;;11.80;7.00;;;;;;;4.76;70.10;99492.52;125428;1311;348173;-62
2024/04/25 19:42:46;;;;;;;10.90;6.40;;;;;;;4.75;70.44;99496.80;125944;1298;114821;-61
2024/04/25 19:45:59;;;;;;;10.90;6.50;;;;;;;4.69;70.40;99493.63;127183;1285;115866;-62
2024/04/25 19:49:24;;;;;;;11.90;7.00;;;;;;;4.64;70.34;99499.86;127141;1282;128633;-61
2024/04/25 19:52:52;;;;;;;11.10;6.80;;;;;;;4.63;70.40;99504.83;126043;1292;636122;-61
2024/04/25 19:55:54;;;;;;;;;;;;;;;4.56;70.54;99504.90;128956;1284;127832;-60
2024/04/25 19:58:59;;;;;;;11.20;5.70;;;;;;;4.50;70.79;99505.86;129040;1268;115224;-61
2024/04/25 20:02:05;;;;;;;9.90;6.10;;;;;;;4.44;71.02;99505.73;128815;1284;114738;-61
2024/04/25 20:05:26;;;;;;;11.20;6.90;;;;;;;4.42;71.21;99506.85;128784;1287;322352;-61
2024/04/25 20:08:39;;;;;;;13.00;6.60;;;;;;;4.38;71.34;99510.73;128923;1284;116338;-61
2024/04/25 20:12:32;;;;;;;;;;;;;;;;;;;;;
2024/04/25 20:16:39;;;;;;;14.20;9.40;;;;;;;4.25;71.60;99510.11;128609;1287;114963;-61
2024/04/25 20:24:39;;;;;;;;;;;;;;;;;;;;;
2024/04/25 20:28:33;;;;;;;14.10;9.70;;;;;;;4.01;72.12;99520.87;125991;1295;116450;-62
2024/04/25 20:32:25;;;;;;;19.80;12.20;;;;;;;3.94;72.28;99525.89;125314;1317;129529;-60
2024/04/25 20:36:26;;;;;;;19.90;10.80;;;;;;;3.87;72.46;99523.83;124818;1301;115779;-60
2024/04/25 20:43:51;;;;;;;;;;;;;;;;;;;;;
2024/04/25 20:47:55;;;;;;;17.60;11.00;;;;;;;3.68;72.78;99525.89;128772;1275;128286;-63
2024/04/25 20:51:58;;;;;;;18.30;12.00;;;;;;;3.62;73.01;99529.61;128202;1290;115194;-60
2024/04/25 20:59:51;;;;;;;;;;;;;;;;;;;;;
2024/04/25 21:03:46;;;;;;;24.10;14.20;;;;;;;3.46;73.62;99541.80;125656;1317;114956;-59
2024/04/25 21:07:38;;;;;;;;;;;;;;;;;;;;;
2024/04/25 21:11:23;;;;;;;;;;;;;;;3.34;73.76;99542.36;124048;1314;129944;-62
2024/04/25 21:15:13;;;;;;;;;;;;;;;;;;;;;
2024/04/25 21:19:26;;;;;;;;;;;;;;;;;;;;;
2024/04/25 21:23:01;;;;;;;36.40;19.30;;;;;;;3.21;74.07;99547.89;127006;1287;128628;-63
2024/04/25 21:26:49;;;;;;;;;;;;;;;;;;;;;
2024/04/25 21:30:51;;;;;;;;;;;;;;;;;;;;;
2024/04/25 21:35:00;;;;;;;81.70;32.70;;;;;;;3.06;74.44;99551.16;121979;1292;115006;-60
2024/04/25 21:38:53;;;;;;;;;;;;;;;;;;;;;
2024/04/25 21:42:29;;;;;;;73.00;31.00;;;;;;;2.96;74.61;99560.30;124408;1326;114960;-61